Time;durP1;ratioP1;P1;durP2;ratioP2;P2;SDS_P1;SDS_P2;PMS_P1;PMS_P2;Temp;Humidity;BMP_temperature;BMP_pressure;BME280_temperature;BME280_humidity;BME280_pressure;Samples;Min_cycle;Max_cycle;Signal;HPM_P1;HPM_P2
2022/07/06 00:00:06;;;;;;;0.38;0.38;;;16.50;62.50;;;;;;5066671;28;20132;-66
2022/07/06 00:02:32;;;;;;;0.35;0.30;;;16.50;62.60;;;;;;5068593;28;20103;-66
2022/07/06 00:04:57;;;;;;;0.35;0.35;;;16.50;62.60;;;;;;5068593;28;20427;-66
2022/07/06 00:07:23;;;;;;;0.20;0.20;;;16.50;62.70;;;;;;5046642;28;20083;-66
2022/07/06 00:09:49;;;;;;;2.55;0.63;;;16.50;62.80;;;;;;5058967;28;20386;-66
2022/07/06 00:12:15;;;;;;;0.68;0.38;;;16.40;62.90;;;;;;5066839;28;20463;-72
2022/07/06 00:14:41;;;;;;;1.10;0.82;;;16.40;63.10;;;;;;5068773;28;20447;-67
2022/07/06 00:17:06;;;;;;;0.32;0.30;;;16.40;63.20;;;;;;5068192;28;20093;-66
2022/07/06 00:19:32;;;;;;;0.68;0.35;;;16.40;63.20;;;;;;5066781;28;20029;-67
2022/07/06 00:21:58;;;;;;;0.30;0.30;;;16.30;63.20;;;;;;5067517;28;20479;-72
2022/07/06 00:24:24;;;;;;;0.30;0.30;;;16.30;63.30;;;;;;5068168;28;20024;-72
2022/07/06 00:26:50;;;;;;;0.30;0.30;;;16.30;63.40;;;;;;5068243;28;20344;-72
2022/07/06 00:29:15;;;;;;;1.48;0.43;;;16.30;63.60;;;;;;5065771;28;20040;-73
2022/07/06 00:31:41;;;;;;;0.32;0.30;;;16.30;63.80;;;;;;5066817;28;20032;-66
2022/07/06 00:34:07;;;;;;;1.45;0.63;;;16.30;63.90;;;;;;5066775;28;20025;-72
2022/07/06 00:36:32;;;;;;;1.35;0.60;;;16.30;64.00;;;;;;5066091;28;20171;-66
2022/07/06 00:38:58;;;;;;;0.57;0.40;;;16.30;64.00;;;;;;5066768;28;20097;-67
2022/07/06 00:41:23;;;;;;;0.52;0.35;;;16.30;64.30;;;;;;5067734;28;20036;-72
2022/07/06 00:43:57;;;;;;;0.43;0.30;;;16.30;64.40;;;;;;5046975;28;20036;-67
2022/07/06 00:46:30;;;;;;;0.70;0.60;;;16.30;64.30;;;;;;5062382;28;20031;-72
2022/07/06 00:48:55;;;;;;;0.63;0.40;;;16.30;64.40;;;;;;5055148;28;20486;-67
2022/07/06 00:51:28;;;;;;;7.13;0.57;;;16.20;64.60;;;;;;5067190;28;20120;-67
2022/07/06 00:53:57;;;;;;;1.00;0.88;;;16.30;64.70;;;;;;5067858;28;20021;-66
2022/07/06 00:56:23;;;;;;;0.63;0.63;;;16.30;64.80;;;;;;5068048;28;20017;-72
2022/07/06 00:58:49;;;;;;;0.43;0.43;;;16.30;64.90;;;;;;5069904;28;20049;-67
2022/07/06 01:01:14;;;;;;;1.83;0.75;;;16.30;64.90;;;;;;5050449;28;20406;-72
2022/07/06 01:03:40;;;;;;;0.40;0.40;;;16.30;65.00;;;;;;5066821;28;20025;-72
2022/07/06 01:06:06;;;;;;;0.52;0.40;;;16.30;65.00;;;;;;5069397;28;20039;-73
2022/07/06 01:08:32;;;;;;;1.17;0.75;;;16.20;65.10;;;;;;5070022;28;20036;-73
2022/07/06 01:10:58;;;;;;;1.10;0.50;;;16.30;65.20;;;;;;5071540;28;20036;-72
2022/07/06 01:13:25;;;;;;;0.68;0.52;;;16.20;65.20;;;;;;5070454;28;20043;-72
2022/07/06 01:15:51;;;;;;;0.63;0.43;;;16.20;65.20;;;;;;5071459;28;20090;-66
2022/07/06 01:18:17;;;;;;;0.93;0.50;;;16.20;65.20;;;;;;5071478;28;20652;-66
2022/07/06 01:20:43;;;;;;;1.83;0.70;;;16.20;65.20;;;;;;5070946;28;20036;-72
2022/07/06 01:23:08;;;;;;;7.53;0.52;;;16.20;65.30;;;;;;5069351;28;20029;-72
2022/07/06 01:25:34;;;;;;;1.38;0.50;;;16.20;65.50;;;;;;5070122;28;20111;-72
2022/07/06 01:28:00;;;;;;;0.68;0.68;;;16.20;66.10;;;;;;5071071;28;20475;-66
2022/07/06 01:30:26;;;;;;;1.10;0.50;;;16.20;65.50;;;;;;5071504;28;20035;-66
2022/07/06 01:32:52;;;;;;;0.60;0.60;;;16.10;65.60;;;;;;5071432;28;20482;-72
2022/07/06 01:35:18;;;;;;;0.40;0.40;;;16.10;65.70;;;;;;5070643;28;20107;-72
2022/07/06 01:37:44;;;;;;;1.70;0.82;;;16.10;65.70;;;;;;5070433;28;20379;-72
2022/07/06 01:40:11;;;;;;;0.65;0.65;;;16.10;65.80;;;;;;5071389;28;20024;-73
2022/07/06 01:42:37;;;;;;;3.33;0.80;;;16.10;65.90;;;;;;5070896;28;20021;-72
2022/07/06 01:45:04;;;;;;;0.30;0.30;;;16.00;66.00;;;;;;5069638;28;20505;-72
2022/07/06 01:47:30;;;;;;;0.60;0.60;;;16.00;66.00;;;;;;5071050;28;20023;-72
2022/07/06 01:50:00;;;;;;;0.50;0.50;;;16.00;66.00;;;;;;5052428;28;20028;-72
2022/07/06 01:52:27;;;;;;;0.73;0.73;;;15.90;66.00;;;;;;5069214;28;20028;-66
2022/07/06 01:54:54;;;;;;;2.80;0.95;;;16.00;66.10;;;;;;5071073;28;20408;-67
2022/07/06 01:57:19;;;;;;;0.98;0.40;;;15.90;66.00;;;;;;5088686;28;20115;-67
2022/07/06 01:59:45;;;;;;;0.50;0.50;;;15.90;66.10;;;;;;5068953;28;20155;-66
2022/07/06 02:02:11;;;;;;;0.65;0.65;;;15.80;66.10;;;;;;5070565;28;20024;-72
2022/07/06 02:04:37;;;;;;;1.33;0.75;;;15.80;66.20;;;;;;5069276;28;20029;-72
2022/07/06 02:07:03;;;;;;;0.55;0.55;;;15.70;66.40;;;;;;5069407;28;20032;-72
2022/07/06 02:09:28;;;;;;;0.40;0.40;;;15.70;66.60;;;;;;5070044;28;20016;-72
2022/07/06 02:11:54;;;;;;;0.70;0.70;;;15.70;66.70;;;;;;5069098;28;20441;-72
2022/07/06 02:14:19;;;;;;;0.45;0.45;;;15.70;66.70;;;;;;5069286;28;20033;-66
2022/07/06 02:16:45;;;;;;;2.92;0.63;;;15.70;66.70;;;;;;5065069;28;20037;-66
2022/07/06 02:19:11;;;;;;;2.95;0.60;;;15.70;66.70;;;;;;5062678;28;20103;-72
2022/07/06 02:21:36;;;;;;;0.55;0.40;;;15.60;66.70;;;;;;5067916;28;20040;-72
2022/07/06 02:24:02;;;;;;;0.50;0.50;;;15.60;66.70;;;;;;5070417;28;20020;-72
2022/07/06 02:26:28;;;;;;;0.52;0.52;;;15.60;66.90;;;;;;5070420;28;20375;-67
2022/07/06 02:28:54;;;;;;;0.50;0.50;;;15.60;67.10;;;;;;5069608;28;20077;-72
2022/07/06 02:31:19;;;;;;;0.40;0.40;;;15.60;67.10;;;;;;5070020;28;20428;-67
2022/07/06 02:33:45;;;;;;;0.65;0.65;;;15.60;67.10;;;;;;5069890;28;20893;-72
2022/07/06 02:36:11;;;;;;;2.50;0.60;;;15.60;67.10;;;;;;5069349;28;20016;-72
2022/07/06 02:38:36;;;;;;;0.73;0.55;;;15.60;67.10;;;;;;5068220;28;20031;-67
2022/07/06 02:41:03;;;;;;;1.17;0.60;;;15.60;67.10;;;;;;5070033;28;20021;-66
2022/07/06 02:43:29;;;;;;;0.77;0.47;;;15.60;67.00;;;;;;5069919;28;20388;-72
2022/07/06 02:45:54;;;;;;;1.55;0.45;;;15.60;67.10;;;;;;5051622;28;20036;-72
2022/07/06 02:48:21;;;;;;;0.70;0.65;;;15.60;67.30;;;;;;5069624;28;20140;-73
2022/07/06 02:50:47;;;;;;;0.50;0.50;;;15.60;67.30;;;;;;5069113;28;20028;-72
2022/07/06 02:53:13;;;;;;;0.55;0.43;;;15.50;67.30;;;;;;5069453;28;20037;-72
2022/07/06 02:55:39;;;;;;;1.17;1.00;;;15.50;67.20;;;;;;5069874;28;20055;-66
2022/07/06 02:58:04;;;;;;;1.17;0.35;;;15.50;67.30;;;;;;5060283;28;20120;-67
2022/07/06 03:00:30;;;;;;;0.90;0.75;;;15.50;67.30;;;;;;5062376;28;20059;-67
2022/07/06 03:02:55;;;;;;;2.47;0.55;;;15.50;67.30;;;;;;5069244;28;20017;-67
2022/07/06 03:05:21;;;;;;;0.75;0.30;;;15.50;67.40;;;;;;5067754;28;20035;-72
2022/07/06 03:07:47;;;;;;;2.63;0.52;;;15.50;67.40;;;;;;5068654;28;20024;-72
2022/07/06 03:10:12;;;;;;;3.63;0.60;;;15.50;67.50;;;;;;5069611;28;20094;-73
2022/07/06 03:12:38;;;;;;;2.88;0.50;;;15.50;67.50;;;;;;5050320;28;20060;-67
2022/07/06 03:15:04;;;;;;;0.60;0.40;;;15.50;67.50;;;;;;5068165;28;20037;-66
2022/07/06 03:17:30;;;;;;;1.08;0.38;;;15.50;67.50;;;;;;5065940;28;20043;-67
2022/07/06 03:19:55;;;;;;;1.13;0.60;;;15.40;67.50;;;;;;5067985;28;20029;-67
2022/07/06 03:22:21;;;;;;;0.40;0.40;;;15.50;67.60;;;;;;5065633;28;20086;-67
2022/07/06 03:24:47;;;;;;;0.50;0.50;;;15.40;67.70;;;;;;5049886;28;20023;-72
2022/07/06 03:27:12;;;;;;;0.43;0.40;;;15.50;67.80;;;;;;5066667;28;20048;-72
2022/07/06 03:29:38;;;;;;;0.40;0.40;;;15.40;67.80;;;;;;5065987;28;20078;-72
2022/07/06 03:32:04;;;;;;;0.30;0.30;;;15.40;68.50;;;;;;5067948;28;20028;-72
2022/07/06 03:34:29;;;;;;;1.08;0.50;;;15.50;67.90;;;;;;5060377;28;20020;-67
2022/07/06 03:36:55;;;;;;;0.90;0.60;;;15.50;68.20;;;;;;5062530;28;20096;-73
2022/07/06 03:39:21;;;;;;;1.02;0.60;;;15.50;68.00;;;;;;5065980;28;20063;-73
2022/07/06 03:41:47;;;;;;;0.40;0.40;;;15.50;67.90;;;;;;5067639;28;20016;-66
2022/07/06 03:44:12;;;;;;;0.70;0.65;;;15.60;67.90;;;;;;5067746;28;20017;-72
2022/07/06 03:46:38;;;;;;;0.73;0.63;;;15.60;67.90;;;;;;5066019;28;20017;-72
2022/07/06 03:49:03;;;;;;;0.30;0.30;;;15.70;67.90;;;;;;5067185;28;20088;-72
2022/07/06 03:51:29;;;;;;;0.55;0.50;;;15.70;67.80;;;;;;5066974;28;20080;-72
2022/07/06 03:53:55;;;;;;;0.40;0.35;;;15.70;67.70;;;;;;5067341;28;20020;-72
2022/07/06 03:56:29;;;;;;;0.40;0.40;;;15.80;67.60;;;;;;5066250;28;20146;-72
2022/07/06 03:59:02;;;;;;;0.52;0.52;;;15.80;67.60;;;;;;5053809;28;20040;-72
2022/07/06 04:01:29;;;;;;;1.05;0.30;;;15.80;67.50;;;;;;5067319;28;20058;-72
2022/07/06 04:03:55;;;;;;;0.82;0.57;;;15.90;67.50;;;;;;5067166;28;20077;-72
2022/07/06 04:06:21;;;;;;;0.50;0.50;;;15.90;67.50;;;;;;5065915;28;20036;-72
2022/07/06 04:08:46;;;;;;;0.30;0.30;;;15.90;67.40;;;;;;5067523;28;20035;-72
2022/07/06 04:11:12;;;;;;;1.98;0.73;;;15.90;67.40;;;;;;5068432;28;20306;-72
2022/07/06 04:13:38;;;;;;;0.30;0.30;;;15.90;67.30;;;;;;5068630;28;20036;-73
2022/07/06 04:16:05;;;;;;;1.23;0.50;;;15.90;67.30;;;;;;5068052;28;20028;-73
2022/07/06 04:18:31;;;;;;;2.25;0.55;;;16.00;67.30;;;;;;5066830;28;20048;-73
2022/07/06 04:20:57;;;;;;;0.88;0.45;;;16.00;67.30;;;;;;5067241;28;20060;-73
2022/07/06 04:23:23;;;;;;;0.52;0.38;;;16.00;67.40;;;;;;5068777;28;20036;-66
2022/07/06 04:25:49;;;;;;;0.80;0.50;;;16.00;67.40;;;;;;5068130;28;20028;-66
2022/07/06 04:28:15;;;;;;;0.38;0.38;;;16.00;67.40;;;;;;5068101;28;20412;-67
2022/07/06 04:30:40;;;;;;;0.28;0.28;;;16.10;67.50;;;;;;5066575;28;20035;-67
2022/07/06 04:33:06;;;;;;;0.85;0.77;;;16.10;67.50;;;;;;5049989;28;20036;-66
2022/07/06 04:35:32;;;;;;;0.50;0.40;;;16.20;67.50;;;;;;5067496;28;20044;-66
2022/07/06 04:37:57;;;;;;;0.60;0.60;;;16.20;67.60;;;;;;5070343;28;20038;-67
2022/07/06 04:40:23;;;;;;;0.35;0.35;;;16.20;67.40;;;;;;5050888;28;20056;-66
2022/07/06 04:42:49;;;;;;;0.30;0.30;;;16.30;67.40;;;;;;5071562;28;20032;-72
2022/07/06 04:45:14;;;;;;;0.50;0.50;;;16.40;67.30;;;;;;5053972;28;20530;-66
2022/07/06 04:47:40;;;;;;;0.20;0.20;;;16.40;67.20;;;;;;5071653;28;20077;-72
2022/07/06 04:50:06;;;;;;;0.68;0.40;;;16.50;67.00;;;;;;5070423;28;20029;-67
2022/07/06 04:52:32;;;;;;;0.47;0.40;;;16.60;66.90;;;;;;5071654;28;20060;-67
2022/07/06 04:54:58;;;;;;;1.20;0.65;;;16.70;66.60;;;;;;5070770;28;20083;-67
2022/07/06 04:57:25;;;;;;;0.43;0.40;;;16.80;66.40;;;;;;5070195;28;20036;-67
2022/07/06 04:59:52;;;;;;;1.02;0.45;;;16.80;66.30;;;;;;5071432;28;20478;-73
2022/07/06 05:02:18;;;;;;;1.17;0.45;;;16.90;66.20;;;;;;5071695;28;20103;-73
2022/07/06 05:04:43;;;;;;;0.20;0.20;;;17.00;66.10;;;;;;5071693;28;20092;-72
2022/07/06 05:07:09;;;;;;;0.22;0.22;;;17.00;65.80;;;;;;5070859;28;20062;-73
2022/07/06 05:09:35;;;;;;;0.28;0.28;;;17.10;65.70;;;;;;5071213;28;20086;-73
2022/07/06 05:12:00;;;;;;;0.40;0.40;;;17.20;65.50;;;;;;5070285;28;20032;-66
2022/07/06 05:14:26;;;;;;;0.40;0.40;;;17.20;65.40;;;;;;5070477;28;20070;-66
2022/07/06 05:16:52;;;;;;;0.45;0.40;;;17.20;65.30;;;;;;5071217;28;20040;-66
2022/07/06 05:19:17;;;;;;;0.40;0.40;;;17.20;65.30;;;;;;5071370;28;20033;-66
2022/07/06 05:21:43;;;;;;;0.95;0.50;;;17.30;65.50;;;;;;5070665;28;20107;-66
2022/07/06 05:24:09;;;;;;;0.80;0.52;;;17.20;65.50;;;;;;5070461;28;20340;-73
2022/07/06 05:26:34;;;;;;;1.45;0.47;;;17.30;65.60;;;;;;5071165;28;20028;-72
2022/07/06 05:29:00;;;;;;;0.43;0.30;;;17.30;65.60;;;;;;5069783;28;20074;-72
2022/07/06 05:31:26;;;;;;;1.13;0.68;;;17.30;65.60;;;;;;5071371;28;20028;-73
2022/07/06 05:33:51;;;;;;;0.28;0.28;;;17.30;65.60;;;;;;5069673;28;20024;-73
2022/07/06 05:36:18;;;;;;;3.08;0.30;;;17.30;65.50;;;;;;5070493;28;20112;-73
2022/07/06 05:38:44;;;;;;;0.43;0.40;;;17.30;65.60;;;;;;5081996;28;20031;-73
2022/07/06 05:41:09;;;;;;;1.02;0.43;;;17.30;65.70;;;;;;5071252;28;20402;-73
2022/07/06 05:43:38;;;;;;;1.00;0.68;;;17.30;65.70;;;;;;5070071;28;20035;-66
2022/07/06 05:46:04;;;;;;;1.20;0.32;;;17.40;65.70;;;;;;5069476;28;20102;-66
2022/07/06 05:51:14;;;;;;;0.60;0.50;;;17.50;65.30;;;;;;5070231;28;20097;-66
2022/07/06 05:53:40;;;;;;;0.30;0.30;;;17.50;65.10;;;;;;5070632;28;20037;-74
2022/07/06 05:56:06;;;;;;;0.50;0.45;;;17.60;65.20;;;;;;5068990;28;20440;-72
2022/07/06 05:58:31;;;;;;;0.45;0.30;;;17.60;65.00;;;;;;5070184;28;20499;-72
2022/07/06 06:00:57;;;;;;;0.75;0.50;;;17.60;65.00;;;;;;5070658;28;20040;-73
2022/07/06 06:03:23;;;;;;;0.88;0.57;;;17.60;65.20;;;;;;5070766;28;20025;-72
2022/07/06 06:05:49;;;;;;;0.60;0.55;;;17.50;65.30;;;;;;5069413;28;20509;-73
2022/07/06 06:08:15;;;;;;;0.52;0.52;;;17.50;65.40;;;;;;5070342;28;20023;-67
2022/07/06 06:10:41;;;;;;;0.22;0.20;;;17.60;65.40;;;;;;5070556;28;20107;-66
2022/07/06 06:13:06;;;;;;;0.35;0.20;;;17.60;65.40;;;;;;5070574;28;20038;-66
2022/07/06 06:15:32;;;;;;;0.20;0.20;;;17.70;65.30;;;;;;5070154;28;20039;-66
2022/07/06 06:17:58;;;;;;;0.57;0.20;;;17.70;65.20;;;;;;5070079;28;20028;-67
2022/07/06 06:20:24;;;;;;;0.38;0.30;;;17.80;65.20;;;;;;5069986;28;20111;-66
2022/07/06 06:22:52;;;;;;;0.30;0.30;;;17.80;65.00;;;;;;5085257;28;20870;-66
2022/07/06 06:25:19;;;;;;;0.38;0.38;;;17.80;65.00;;;;;;5070019;28;20016;-66
2022/07/06 06:27:46;;;;;;;0.68;0.38;;;17.80;65.20;;;;;;5069651;28;20020;-66
2022/07/06 06:30:12;;;;;;;0.57;0.50;;;17.80;65.10;;;;;;5070262;28;20417;-67
2022/07/06 06:32:38;;;;;;;0.40;0.40;;;17.90;65.10;;;;;;5070240;28;20383;-65
2022/07/06 06:35:05;;;;;;;0.65;0.30;;;18.00;65.10;;;;;;5069395;28;20033;-67
2022/07/06 06:37:31;;;;;;;3.55;0.70;;;18.10;65.00;;;;;;5069653;28;20086;-67
2022/07/06 06:39:56;;;;;;;0.40;0.40;;;18.10;65.60;;;;;;5069888;28;20028;-66
2022/07/06 06:42:22;;;;;;;0.43;0.30;;;18.30;64.80;;;;;;5070037;28;20024;-73
2022/07/06 06:44:48;;;;;;;0.30;0.30;;;18.40;64.60;;;;;;5069338;28;20124;-73
2022/07/06 06:47:13;;;;;;;0.35;0.30;;;18.50;64.40;;;;;;5069519;28;20031;-73
2022/07/06 06:49:39;;;;;;;0.30;0.30;;;18.50;64.00;;;;;;5070138;28;20040;-72
2022/07/06 06:52:05;;;;;;;0.73;0.30;;;18.60;64.00;;;;;;5068367;28;20471;-72
2022/07/06 06:54:31;;;;;;;0.20;0.20;;;18.60;64.00;;;;;;5068458;28;20040;-73
2022/07/06 06:56:56;;;;;;;0.38;0.38;;;18.70;63.90;;;;;;5068125;28;20119;-73
2022/07/06 06:59:22;;;;;;;0.47;0.40;;;18.60;63.60;;;;;;5068867;28;20487;-73
2022/07/06 07:01:48;;;;;;;0.25;0.25;;;18.70;63.70;;;;;;5049181;28;20120;-73
2022/07/06 07:04:14;;;;;;;0.75;0.20;;;18.70;63.50;;;;;;5056080;28;20033;-73
2022/07/06 07:06:39;;;;;;;0.75;0.63;;;18.80;63.40;;;;;;5050238;28;20628;-67
2022/07/06 07:09:05;;;;;;;0.68;0.30;;;18.80;63.10;;;;;;5068053;28;20025;-66
2022/07/06 07:11:31;;;;;;;0.88;0.30;;;18.90;63.00;;;;;;5054543;28;20029;-73
2022/07/06 07:13:57;;;;;;;0.20;0.20;;;18.80;62.60;;;;;;5047119;28;20098;-73
2022/07/06 07:16:24;;;;;;;1.45;0.50;;;18.80;62.70;;;;;;5084968;28;20040;-66
2022/07/06 07:18:50;;;;;;;2.08;0.55;;;18.80;62.60;;;;;;5067467;28;20024;-73
2022/07/06 07:21:16;;;;;;;0.43;0.43;;;18.80;62.50;;;;;;5066770;28;20028;-72
2022/07/06 07:23:42;;;;;;;1.88;0.63;;;18.90;62.50;;;;;;5057432;28;20040;-73
2022/07/06 07:26:07;;;;;;;0.30;0.30;;;19.00;62.10;;;;;;5056250;28;20032;-72
2022/07/06 07:28:33;;;;;;;0.30;0.30;;;19.10;61.40;;;;;;5067561;28;20024;-73
2022/07/06 07:30:59;;;;;;;0.20;0.20;;;19.10;61.00;;;;;;5048889;28;20148;-72
2022/07/06 07:33:25;;;;;;;0.20;0.20;;;19.30;61.10;;;;;;5051910;28;20541;-73
2022/07/06 07:35:50;;;;;;;0.30;0.30;;;19.40;60.60;;;;;;5055542;28;20086;-66
2022/07/06 07:38:16;;;;;;;0.45;0.30;;;19.50;60.50;;;;;;5066528;28;20110;-66
2022/07/06 07:40:42;;;;;;;0.45;0.40;;;19.70;59.80;;;;;;5065914;28;20386;-66
2022/07/06 07:43:07;;;;;;;0.55;0.30;;;19.80;59.30;;;;;;5066305;28;20097;-66
2022/07/06 07:45:33;;;;;;;0.30;0.30;;;19.90;58.70;;;;;;5065644;28;20025;-66
2022/07/06 07:47:59;;;;;;;2.17;0.20;;;20.00;58.20;;;;;;5066566;28;20029;-72
2022/07/06 07:50:26;;;;;;;0.20;0.20;;;19.90;56.90;;;;;;5068422;28;20042;-72
2022/07/06 07:52:52;;;;;;;0.30;0.30;;;19.70;57.30;;;;;;5065234;28;20119;-72
2022/07/06 07:55:18;;;;;;;1.38;0.65;;;19.70;57.40;;;;;;5065693;28;20173;-73
2022/07/06 07:57:44;;;;;;;0.38;0.38;;;19.70;57.50;;;;;;5065844;28;20051;-73
2022/07/06 08:00:10;;;;;;;1.17;0.50;;;19.70;56.60;;;;;;5064905;28;20059;-67
2022/07/06 08:02:36;;;;;;;0.28;0.28;;;19.70;56.50;;;;;;5056223;28;20494;-66
2022/07/06 08:05:02;;;;;;;0.30;0.30;;;19.90;56.40;;;;;;5067590;28;20020;-72
2022/07/06 08:07:28;;;;;;;0.20;0.20;;;20.00;55.70;;;;;;5066594;28;20024;-73
2022/07/06 08:09:53;;;;;;;0.45;0.35;;;20.10;55.60;;;;;;5066511;28;20043;-73
2022/07/06 08:12:19;;;;;;;0.20;0.20;;;20.30;55.00;;;;;;5066681;28;20086;-72
2022/07/06 08:14:45;;;;;;;0.32;0.32;;;20.50;54.50;;;;;;5067189;28;20135;-73
2022/07/06 08:17:10;;;;;;;0.10;0.10;;;20.60;53.30;;;;;;5064631;28;20020;-72
2022/07/06 08:19:36;;;;;;;0.20;0.20;;;20.70;53.20;;;;;;5055486;28;20036;-73
2022/07/06 08:22:06;;;;;;;1.55;0.38;;;20.60;53.20;;;;;;5047966;28;20182;-73
2022/07/06 08:24:34;;;;;;;0.32;0.30;;;20.50;52.50;;;;;;5044335;28;20025;-73
2022/07/06 08:27:00;;;;;;;0.20;0.20;;;20.30;52.40;;;;;;5065796;28;20185;-73
2022/07/06 08:29:26;;;;;;;2.05;0.57;;;20.20;53.00;;;;;;5059129;28;20075;-66
2022/07/06 08:31:51;;;;;;;1.95;0.50;;;20.30;53.00;;;;;;5053139;28;20041;-67
2022/07/06 08:34:17;;;;;;;3.17;0.68;;;20.50;52.80;;;;;;5052883;28;20048;-67
2022/07/06 08:36:43;;;;;;;0.22;0.22;;;20.70;52.20;;;;;;5058169;28;20040;-66
2022/07/06 08:39:09;;;;;;;0.22;0.22;;;20.60;50.90;;;;;;5060807;28;20028;-67
2022/07/06 08:41:36;;;;;;;0.20;0.20;;;20.50;51.30;;;;;;5055967;28;20450;-66
2022/07/06 08:44:02;;;;;;;0.10;0.10;;;20.50;51.50;;;;;;5062036;28;20017;-66
2022/07/06 08:46:29;;;;;;;0.13;0.13;;;20.40;51.20;;;;;;5060652;28;20028;-66
2022/07/06 08:48:55;;;;;;;0.73;0.30;;;20.30;51.10;;;;;;5054446;28;20119;-67
2022/07/06 08:51:23;;;;;;;0.17;0.17;;;20.40;51.40;;;;;;5060708;28;20060;-66
2022/07/06 08:53:51;;;;;;;0.20;0.20;;;20.60;51.20;;;;;;5060872;28;20115;-66
2022/07/06 08:56:19;;;;;;;1.67;1.10;;;20.80;50.50;;;;;;5047615;28;20033;-72
2022/07/06 08:58:45;;;;;;;1.70;0.35;;;21.00;49.60;;;;;;5064426;28;20051;-66
2022/07/06 09:01:11;;;;;;;0.20;0.20;;;21.20;49.40;;;;;;5065790;28;20037;-66
2022/07/06 09:03:40;;;;;;;0.65;0.30;;;21.50;49.10;;;;;;5059068;28;20052;-66
2022/07/06 09:06:06;;;;;;;0.40;0.40;;;21.70;49.00;;;;;;5059328;28;20062;-67
2022/07/06 09:08:32;;;;;;;0.32;0.32;;;21.80;47.60;;;;;;5063436;28;20047;-73
2022/07/06 09:10:58;;;;;;;0.20;0.20;;;21.70;47.70;;;;;;5063098;28;20036;-73
2022/07/06 09:13:24;;;;;;;0.20;0.20;;;21.50;47.60;;;;;;5064992;28;20457;-73
2022/07/06 09:15:49;;;;;;;0.30;0.30;;;21.50;48.30;;;;;;5063603;28;20037;-74
2022/07/06 09:18:15;;;;;;;0.20;0.20;;;21.60;48.50;;;;;;5066185;28;20033;-73
2022/07/06 09:20:42;;;;;;;0.43;0.22;;;21.70;48.10;;;;;;5069309;28;20028;-67
2022/07/06 09:23:07;;;;;;;0.30;0.30;;;21.90;47.80;;;;;;5073427;28;20051;-73
2022/07/06 09:25:34;;;;;;;0.20;0.20;;;22.10;47.20;;;;;;5069442;28;20028;-73
2022/07/06 09:28:01;;;;;;;0.20;0.20;;;21.90;46.80;;;;;;5069798;28;20024;-73
2022/07/06 09:30:28;;;;;;;0.55;0.25;;;21.80;47.00;;;;;;5049936;28;20025;-73
2022/07/06 09:32:55;;;;;;;0.20;0.20;;;21.80;47.40;;;;;;5069096;28;20485;-73
2022/07/06 09:35:27;;;;;;;0.20;0.20;;;21.70;47.60;;;;;;5069820;28;20101;-73
2022/07/06 09:38:13;;;;;;;0.10;0.10;;;21.60;47.60;;;;;;5065932;28;20376;-73
2022/07/06 09:40:43;;;;;;;0.20;0.20;;;21.40;47.60;;;;;;5065068;28;20299;-74
2022/07/06 09:43:14;;;;;;;0.20;0.20;;;21.30;47.80;;;;;;5050370;28;20075;-74
2022/07/06 09:45:49;;;;;;;0.20;0.20;;;21.30;48.00;;;;;;5056262;28;20037;-74
2022/07/06 09:48:21;;;;;;;0.20;0.20;;;21.40;48.30;;;;;;5062564;28;20105;-73
2022/07/06 09:50:55;;;;;;;0.43;0.28;;;21.50;48.30;;;;;;5062616;28;20032;-74
2022/07/06 09:53:26;;;;;;;0.20;0.20;;;21.70;48.00;;;;;;5063930;28;20052;-74
2022/07/06 09:55:54;;;;;;;0.35;0.35;;;21.90;47.60;;;;;;5059682;28;20055;-73
2022/07/06 09:58:22;;;;;;;0.17;0.17;;;22.20;47.20;;;;;;5074060;28;20131;-74
2022/07/06 10:00:48;;;;;;;0.30;0.30;;;22.30;46.40;;;;;;5061092;28;20122;-70
2022/07/06 10:03:15;;;;;;;0.20;0.20;;;22.60;46.80;;;;;;5063841;28;20032;-72
2022/07/06 10:05:43;;;;;;;0.20;0.20;;;22.70;46.70;;;;;;5062337;28;20033;-71
2022/07/06 10:08:10;;;;;;;0.98;0.45;;;22.80;46.30;;;;;;5064404;28;20051;-71
2022/07/06 10:10:38;;;;;;;0.35;0.30;;;22.80;45.50;;;;;;5047389;28;20041;-72
2022/07/06 10:13:07;;;;;;;0.47;0.45;;;22.70;45.10;;;;;;5063953;28;20684;-73
2022/07/06 10:15:34;;;;;;;0.20;0.20;;;22.60;45.70;;;;;;5066651;28;20082;-73
2022/07/06 10:18:01;;;;;;;0.20;0.20;;;22.70;46.10;;;;;;5064514;28;20161;-72
2022/07/06 10:20:33;;;;;;;0.20;0.20;;;22.70;46.00;;;;;;5068416;28;20020;-66
2022/07/06 10:23:00;;;;;;;0.22;0.22;;;22.90;45.50;;;;;;5075602;28;20111;-66
2022/07/06 10:25:27;;;;;;;0.30;0.28;;;23.00;45.80;;;;;;5071140;28;20024;-64
2022/07/06 10:27:53;;;;;;;0.20;0.20;;;23.00;45.60;;;;;;5065013;28;20090;-67
2022/07/06 10:30:20;;;;;;;0.22;0.22;;;23.20;45.60;;;;;;5066308;28;20032;-69
2022/07/06 10:32:48;;;;;;;0.28;0.28;;;23.20;45.40;;;;;;5063027;28;20039;-68
2022/07/06 10:35:14;;;;;;;0.25;0.20;;;23.20;44.90;;;;;;5065849;28;20040;-71
2022/07/06 10:37:41;;;;;;;0.30;0.30;;;23.10;45.30;;;;;;5067513;28;20433;-67
2022/07/06 10:42:59;;;;;;;0.22;0.22;;;23.30;43.90;;;;;;5061601;28;20063;-65
2022/07/06 10:45:27;;;;;;;0.65;0.20;;;23.40;42.90;;;;;;5061647;28;20028;-66
2022/07/06 10:48:11;;;;;;;0.20;0.20;;;23.40;42.50;;;;;;5059205;28;20024;-63
2022/07/06 10:50:45;;;;;;;0.30;0.30;;;23.70;42.80;;;;;;5063031;28;20032;-70
2022/07/06 10:53:17;;;;;;;0.30;0.30;;;23.80;42.60;;;;;;5063983;28;20059;-69
2022/07/06 10:55:50;;;;;;;0.30;0.30;;;23.90;42.30;;;;;;5061493;28;20283;-74
2022/07/06 10:58:33;;;;;;;0.17;0.17;;;24.00;42.50;;;;;;5063248;28;20558;-67
2022/07/06 11:01:00;;;;;;;0.30;0.30;;;24.00;41.20;;;;;;5065250;28;20032;-65
2022/07/06 11:03:33;;;;;;;0.30;0.30;;;24.10;41.70;;;;;;5067245;28;20115;-65
2022/07/06 11:06:00;;;;;;;0.30;0.30;;;24.40;41.50;;;;;;5068788;28;20051;-66
2022/07/06 11:09:08;;;;;;;0.95;0.40;;;24.60;41.50;;;;;;5070507;28;20017;-71
2022/07/06 11:11:34;;;;;;;1.65;0.30;;;24.70;40.50;;;;;;5008633;28;20044;-70
2022/07/06 11:14:15;;;;;;;0.73;0.30;;;24.70;40.40;;;;;;5059277;28;20067;-73
2022/07/06 11:16:47;;;;;;;0.75;0.30;;;24.60;40.80;;;;;;5051581;28;20369;-72
2022/07/06 11:19:15;;;;;;;0.30;0.30;;;24.40;41.00;;;;;;5065541;28;20028;-72
2022/07/06 11:21:41;;;;;;;0.20;0.20;;;24.30;41.60;;;;;;5055924;28;20029;-66
2022/07/06 11:24:09;;;;;;;0.60;0.38;;;24.40;41.80;;;;;;5068855;28;20028;-66
2022/07/06 11:26:36;;;;;;;0.22;0.20;;;24.60;41.50;;;;;;5057083;28;20028;-66
2022/07/06 11:29:05;;;;;;;0.40;0.40;;;24.80;40.60;;;;;;5073576;28;20386;-66
2022/07/06 11:31:35;;;;;;;0.20;0.20;;;24.80;39.70;;;;;;5059811;28;20372;-66
2022/07/06 11:34:01;;;;;;;0.28;0.20;;;24.60;40.00;;;;;;5063769;28;20032;-73
2022/07/06 11:36:26;;;;;;;0.38;0.28;;;24.60;40.50;;;;;;5061802;28;20047;-73
2022/07/06 11:38:52;;;;;;;0.60;0.60;;;24.70;40.50;;;;;;5060488;28;20153;-73
2022/07/06 11:41:18;;;;;;;0.77;0.25;;;24.90;40.40;;;;;;5068243;28;20039;-72
2022/07/06 11:43:45;;;;;;;0.30;0.30;;;24.80;40.10;;;;;;5068199;28;20028;-73
2022/07/06 11:46:30;;;;;;;0.60;0.38;;;24.70;40.60;;;;;;5073309;28;20039;-73
2022/07/06 11:49:03;;;;;;;0.50;0.50;;;24.70;41.00;;;;;;5061427;28;20316;-73
2022/07/06 11:51:31;;;;;;;0.47;0.40;;;24.80;41.20;;;;;;5052692;28;20039;-73
2022/07/06 11:53:59;;;;;;;0.65;0.40;;;24.90;41.40;;;;;;5056717;28;20486;-73
2022/07/06 11:56:27;;;;;;;0.68;0.45;;;25.00;40.80;;;;;;5051817;28;20406;-67
2022/07/06 11:58:54;;;;;;;0.30;0.30;;;24.80;41.20;;;;;;5051005;28;20048;-67
2022/07/06 12:01:23;;;;;;;0.47;0.30;;;24.70;41.30;;;;;;5058824;28;20523;-66
2022/07/06 12:03:50;;;;;;;0.43;0.43;;;24.60;41.50;;;;;;5057843;28;20352;-66
2022/07/06 12:06:20;;;;;;;0.20;0.20;;;24.50;41.50;;;;;;5056846;28;20514;-66
2022/07/06 12:08:51;;;;;;;0.68;0.68;;;24.40;42.00;;;;;;5057797;28;20020;-67
2022/07/06 12:11:21;;;;;;;0.88;0.50;;;24.30;41.40;;;;;;5074352;28;20043;-66
2022/07/06 12:13:47;;;;;;;0.30;0.30;;;24.20;41.90;;;;;;5058733;28;20439;-73
2022/07/06 12:16:15;;;;;;;0.85;0.63;;;24.40;42.00;;;;;;5059006;28;20403;-73
2022/07/06 12:18:42;;;;;;;0.40;0.40;;;24.60;41.80;;;;;;5060894;28;20031;-73
2022/07/06 12:21:16;;;;;;;0.85;0.25;;;24.50;41.10;;;;;;5060688;28;20417;-66
2022/07/06 12:23:47;;;;;;;0.55;0.40;;;24.40;41.70;;;;;;5062299;28;20092;-67
2022/07/06 12:26:14;;;;;;;0.30;0.30;;;24.40;41.90;;;;;;5071216;28;20454;-66
2022/07/06 12:28:41;;;;;;;0.20;0.20;;;24.40;42.10;;;;;;5056255;28;20546;-66
2022/07/06 12:31:07;;;;;;;0.30;0.30;;;24.70;41.80;;;;;;5061139;28;20033;-66
2022/07/06 12:33:33;;;;;;;0.40;0.40;;;25.00;40.90;;;;;;5064345;28;20086;-66
2022/07/06 12:36:10;;;;;;;5.00;0.75;;;25.30;41.00;;;;;;5058517;28;20028;-66
2022/07/06 12:38:36;;;;;;;0.43;0.30;;;25.70;40.20;;;;;;5057931;28;20029;-66
2022/07/06 12:41:02;;;;;;;0.65;0.65;;;25.90;38.70;;;;;;5056232;28;20046;-66
2022/07/06 12:43:39;;;;;;;0.52;0.47;;;25.70;39.10;;;;;;5056728;28;20051;-66
2022/07/06 12:46:31;;;;;;;0.35;0.35;;;25.70;39.70;;;;;;5060893;28;20025;-67
2022/07/06 12:48:59;;;;;;;0.30;0.30;;;25.60;40.00;;;;;;5060456;28;20016;-67
2022/07/06 12:51:25;;;;;;;0.50;0.50;;;25.60;39.90;;;;;;5058226;28;20039;-66